sensor_id;sensor_type;location;lat;lon;timestamp;temperature;humidity
5848;DHT22;8756;49.29324300;8.70599800;2022-12-20T00:00:17;3.70;99.90
5848;DHT22;8756;49.29324300;8.70599800;2022-12-20T00:02:45;3.60;99.90
5848;DHT22;8756;49.29324300;8.70599800;2022-12-20T00:05:10;3.60;99.90
5848;DHT22;8756;49.29324300;8.70599800;2022-12-20T00:07:36;3.60;99.90
5848;DHT22;8756;49.29324300;8.70599800;2022-12-20T00:10:02;3.60;99.90
5848;DHT22;8756;49.29324300;8.70599800;2022-12-20T00:12:28;3.60;99.90
5848;DHT22;8756;49.29324300;8.70599800;2022-12-20T00:14:54;3.60;99.90
5848;DHT22;8756;49.29324300;8.70599800;2022-12-20T00:17:20;3.70;99.90
5848;DHT22;8756;49.29324300;8.70599800;2022-12-20T00:19:46;3.70;99.90
5848;DHT22;8756;49.29324300;8.70599800;2022-12-20T00:22:12;3.70;99.90
5848;DHT22;8756;49.29324300;8.70599800;2022-12-20T00:24:38;3.80;99.90
5848;DHT22;8756;49.29324300;8.70599800;2022-12-20T00:27:03;3.90;99.90
5848;DHT22;8756;49.29324300;8.70599800;2022-12-20T00:29:29;4.00;99.90
5848;DHT22;8756;49.29324300;8.70599800;2022-12-20T00:31:55;4.10;99.90
5848;DHT22;8756;49.29324300;8.70599800;2022-12-20T00:34:23;4.10;99.90
5848;DHT22;8756;49.29324300;8.70599800;2022-12-20T00:36:49;4.10;99.90
5848;DHT22;8756;49.29324300;8.70599800;2022-12-20T00:39:15;4.10;99.90
5848;DHT22;8756;49.29324300;8.70599800;2022-12-20T00:41:40;4.10;99.90
5848;DHT22;8756;49.29324300;8.70599800;2022-12-20T00:44:06;4.10;99.90
5848;DHT22;8756;49.29324300;8.70599800;2022-12-20T00:46:32;4.10;99.90
5848;DHT22;8756;49.29324300;8.70599800;2022-12-20T00:48:59;4.10;99.90
5848;DHT22;8756;49.29324300;8.70599800;2022-12-20T00:51:27;4.10;99.90
5848;DHT22;8756;49.29324300;8.70599800;2022-12-20T00:53:54;4.20;99.90
5848;DHT22;8756;49.29324300;8.70599800;2022-12-20T00:56:20;4.20;99.90
5848;DHT22;8756;49.29324300;8.70599800;2022-12-20T00:58:46;4.20;99.90
5848;DHT22;8756;49.29324300;8.70599800;2022-12-20T01:01:19;4.20;99.90
5848;DHT22;8756;49.29324300;8.70599800;2022-12-20T01:03:45;4.30;99.90
5848;DHT22;8756;49.29324300;8.70599800;2022-12-20T01:06:11;4.30;99.90
5848;DHT22;8756;49.29324300;8.70599800;2022-12-20T01:08:36;4.40;99.90
5848;DHT22;8756;49.29324300;8.70599800;2022-12-20T01:11:07;4.40;99.90
5848;DHT22;8756;49.29324300;8.70599800;2022-12-20T01:13:37;4.40;99.90
5848;DHT22;8756;49.29324300;8.70599800;2022-12-20T01:16:10;4.40;99.90
5848;DHT22;8756;49.29324300;8.70599800;2022-12-20T01:18:36;4.30;99.90
5848;DHT22;8756;49.29324300;8.70599800;2022-12-20T01:21:08;4.30;99.90
5848;DHT22;8756;49.29324300;8.70599800;2022-12-20T01:23:36;4.30;99.90
5848;DHT22;8756;49.29324300;8.70599800;2022-12-20T01:26:03;4.30;99.90
5848;DHT22;8756;49.29324300;8.70599800;2022-12-20T01:28:31;4.30;99.90
5848;DHT22;8756;49.29324300;8.70599800;2022-12-20T01:31:00;4.30;99.90
5848;DHT22;8756;49.29324300;8.70599800;2022-12-20T01:33:26;4.30;99.90
5848;DHT22;8756;49.29324300;8.70599800;2022-12-20T01:35:57;4.30;99.90
5848;DHT22;8756;49.29324300;8.70599800;2022-12-20T01:38:25;4.30;99.90
5848;DHT22;8756;49.29324300;8.70599800;2022-12-20T01:40:51;4.30;99.90
5848;DHT22;8756;49.29324300;8.70599800;2022-12-20T01:43:18;4.30;99.90
5848;DHT22;8756;49.29324300;8.70599800;2022-12-20T01:45:44;4.40;99.90
5848;DHT22;8756;49.29324300;8.70599800;2022-12-20T01:48:24;4.40;99.90
5848;DHT22;8756;49.29324300;8.70599800;2022-12-20T01:50:51;4.40;99.90
5848;DHT22;8756;49.29324300;8.70599800;2022-12-20T01:53:19;4.40;99.90
5848;DHT22;8756;49.29324300;8.70599800;2022-12-20T01:55:46;4.40;99.90
5848;DHT22;8756;49.29324300;8.70599800;2022-12-20T01:58:13;4.50;99.90
5848;DHT22;8756;49.29324300;8.70599800;2022-12-20T02:00:41;4.50;99.90
5848;DHT22;8756;49.29324300;8.70599800;2022-12-20T02:03:11;4.50;99.90
5848;DHT22;8756;49.29324300;8.70599800;2022-12-20T02:05:41;4.50;99.90
5848;DHT22;8756;49.29324300;8.70599800;2022-12-20T02:08:10;4.50;99.90
5848;DHT22;8756;49.29324300;8.70599800;2022-12-20T02:10:43;4.50;99.90
5848;DHT22;8756;49.29324300;8.70599800;2022-12-20T02:13:34;4.50;99.90
5848;DHT22;8756;49.29324300;8.70599800;2022-12-20T02:16:04;4.50;99.90
5848;DHT22;8756;49.29324300;8.70599800;2022-12-20T02:18:40;4.50;99.90
5848;DHT22;8756;49.29324300;8.70599800;2022-12-20T02:21:38;4.50;99.90
5848;DHT22;8756;49.29324300;8.70599800;2022-12-20T02:24:26;4.50;99.90
5848;DHT22;8756;49.29324300;8.70599800;2022-12-20T02:27:30;4.50;99.90
5848;DHT22;8756;49.29324300;8.70599800;2022-12-20T02:30:01;4.50;99.90
5848;DHT22;8756;49.29324300;8.70599800;2022-12-20T02:32:39;4.50;99.90
5848;DHT22;8756;49.29324300;8.70599800;2022-12-20T02:35:12;4.50;99.90
5848;DHT22;8756;49.29324300;8.70599800;2022-12-20T02:37:50;4.50;99.90
5848;DHT22;8756;49.29324300;8.70599800;2022-12-20T02:40:21;4.50;99.90
5848;DHT22;8756;49.29324300;8.70599800;2022-12-20T02:42:53;4.50;99.90
5848;DHT22;8756;49.29324300;8.70599800;2022-12-20T02:45:23;4.50;99.90
5848;DHT22;8756;49.29324300;8.70599800;2022-12-20T02:47:56;4.50;99.90
5848;DHT22;8756;49.29324300;8.70599800;2022-12-20T02:50:30;4.50;99.90
5848;DHT22;8756;49.29324300;8.70599800;2022-12-20T02:53:01;4.50;99.90
5848;DHT22;8756;49.29324300;8.70599800;2022-12-20T02:55:39;4.50;99.90
5848;DHT22;8756;49.29324300;8.70599800;2022-12-20T02:58:22;4.50;99.90
5848;DHT22;8756;49.29324300;8.70599800;2022-12-20T03:00:54;4.40;99.90
5848;DHT22;8756;49.29324300;8.70599800;2022-12-20T03:03:21;4.40;99.90
5848;DHT22;8756;49.29324300;8.70599800;2022-12-20T03:05:49;4.40;99.90
5848;DHT22;8756;49.29324300;8.70599800;2022-12-20T03:08:17;4.40;99.90
5848;DHT22;8756;49.29324300;8.70599800;2022-12-20T03:10:43;4.40;99.90
5848;DHT22;8756;49.29324300;8.70599800;2022-12-20T03:13:09;4.40;99.90
5848;DHT22;8756;49.29324300;8.70599800;2022-12-20T03:15:35;4.50;99.90
5848;DHT22;8756;49.29324300;8.70599800;2022-12-20T03:18:01;4.50;99.90
5848;DHT22;8756;49.29324300;8.70599800;2022-12-20T03:20:27;4.50;99.90
5848;DHT22;8756;49.29324300;8.70599800;2022-12-20T03:22:53;4.50;99.90
5848;DHT22;8756;49.29324300;8.70599800;2022-12-20T03:25:19;4.50;99.90
5848;DHT22;8756;49.29324300;8.70599800;2022-12-20T03:27:44;4.50;99.90
5848;DHT22;8756;49.29324300;8.70599800;2022-12-20T03:30:13;4.50;99.90
5848;DHT22;8756;49.29324300;8.70599800;2022-12-20T03:32:41;4.50;99.90
5848;DHT22;8756;49.29324300;8.70599800;2022-12-20T03:35:07;4.50;99.90
5848;DHT22;8756;49.29324300;8.70599800;2022-12-20T03:37:33;4.50;99.90
5848;DHT22;8756;49.29324300;8.70599800;2022-12-20T03:39:58;4.40;99.90
5848;DHT22;8756;49.29324300;8.70599800;2022-12-20T03:42:24;4.40;99.90
5848;DHT22;8756;49.29324300;8.70599800;2022-12-20T03:44:50;4.40;99.90
5848;DHT22;8756;49.29324300;8.70599800;2022-12-20T03:47:17;4.40;99.90
5848;DHT22;8756;49.29324300;8.70599800;2022-12-20T03:49:43;4.40;99.90
5848;DHT22;8756;49.29324300;8.70599800;2022-12-20T03:52:11;4.40;99.90
5848;DHT22;8756;49.29324300;8.70599800;2022-12-20T03:54:38;4.40;99.90
5848;DHT22;8756;49.29324300;8.70599800;2022-12-20T03:57:05;4.40;99.90
5848;DHT22;8756;49.29324300;8.70599800;2022-12-20T03:59:30;4.40;99.90
5848;DHT22;8756;49.29324300;8.70599800;2022-12-20T04:01:58;4.40;99.90
5848;DHT22;8756;49.29324300;8.70599800;2022-12-20T04:04:24;4.40;99.90
5848;DHT22;8756;49.29324300;8.70599800;2022-12-20T04:06:50;4.40;99.90
5848;DHT22;8756;49.29324300;8.70599800;2022-12-20T04:09:16;4.50;99.90
5848;DHT22;8756;49.29324300;8.70599800;2022-12-20T04:11:41;4.50;99.90
5848;DHT22;8756;49.29324300;8.70599800;2022-12-20T04:14:07;4.60;99.90
5848;DHT22;8756;49.29324300;8.70599800;2022-12-20T04:16:33;4.60;99.90
5848;DHT22;8756;49.29324300;8.70599800;2022-12-20T04:18:59;4.60;99.90
5848;DHT22;8756;49.29324300;8.70599800;2022-12-20T04:21:27;4.60;99.90
5848;DHT22;8756;49.29324300;8.70599800;2022-12-20T04:23:57;4.60;99.90
5848;DHT22;8756;49.29324300;8.70599800;2022-12-20T04:26:24;4.60;99.90
5848;DHT22;8756;49.29324300;8.70599800;2022-12-20T04:28:50;4.60;99.90
5848;DHT22;8756;49.29324300;8.70599800;2022-12-20T04:31:15;4.70;99.90
5848;DHT22;8756;49.29324300;8.70599800;2022-12-20T04:33:41;4.70;99.90
5848;DHT22;8756;49.29324300;8.70599800;2022-12-20T04:36:08;4.70;99.90
5848;DHT22;8756;49.29324300;8.70599800;2022-12-20T04:38:34;4.80;99.90
5848;DHT22;8756;49.29324300;8.70599800;2022-12-20T04:41:00;4.90;99.90
5848;DHT22;8756;49.29324300;8.70599800;2022-12-20T04:43:26;4.90;99.90
5848;DHT22;8756;49.29324300;8.70599800;2022-12-20T04:45:53;4.90;99.90
5848;DHT22;8756;49.29324300;8.70599800;2022-12-20T04:48:24;4.90;99.90
5848;DHT22;8756;49.29324300;8.70599800;2022-12-20T04:50:53;5.00;99.90
5848;DHT22;8756;49.29324300;8.70599800;2022-12-20T04:53:19;5.00;99.90
5848;DHT22;8756;49.29324300;8.70599800;2022-12-20T04:56:06;5.00;99.90
5848;DHT22;8756;49.29324300;8.70599800;2022-12-20T04:58:33;5.00;99.90
5848;DHT22;8756;49.29324300;8.70599800;2022-12-20T05:00:59;5.00;99.90
5848;DHT22;8756;49.29324300;8.70599800;2022-12-20T05:03:26;5.00;99.90
5848;DHT22;8756;49.29324300;8.70599800;2022-12-20T05:05:53;5.00;99.90
5848;DHT22;8756;49.29324300;8.70599800;2022-12-20T05:08:18;4.90;99.90
5848;DHT22;8756;49.29324300;8.70599800;2022-12-20T05:10:44;5.00;99.90
5848;DHT22;8756;49.29324300;8.70599800;2022-12-20T05:13:10;5.00;99.90
5848;DHT22;8756;49.29324300;8.70599800;2022-12-20T05:15:36;5.00;99.90
5848;DHT22;8756;49.29324300;8.70599800;2022-12-20T05:18:02;5.00;99.90
5848;DHT22;8756;49.29324300;8.70599800;2022-12-20T05:20:29;5.00;99.90
5848;DHT22;8756;49.29324300;8.70599800;2022-12-20T05:22:56;5.00;99.90
5848;DHT22;8756;49.29324300;8.70599800;2022-12-20T05:25:44;5.10;99.90
5848;DHT22;8756;49.29324300;8.70599800;2022-12-20T05:28:30;5.10;99.90
5848;DHT22;8756;49.29324300;8.70599800;2022-12-20T05:30:56;5.10;99.90
5848;DHT22;8756;49.29324300;8.70599800;2022-12-20T05:33:22;5.10;99.90
5848;DHT22;8756;49.29324300;8.70599800;2022-12-20T05:35:47;5.10;99.90
5848;DHT22;8756;49.29324300;8.70599800;2022-12-20T05:38:13;5.10;99.90
5848;DHT22;8756;49.29324300;8.70599800;2022-12-20T05:40:39;5.10;99.90
5848;DHT22;8756;49.29324300;8.70599800;2022-12-20T05:43:06;5.10;99.90
5848;DHT22;8756;49.29324300;8.70599800;2022-12-20T05:45:32;5.10;99.90
5848;DHT22;8756;49.29324300;8.70599800;2022-12-20T05:47:58;5.10;99.90
5848;DHT22;8756;49.29324300;8.70599800;2022-12-20T05:50:24;5.10;99.90
5848;DHT22;8756;49.29324300;8.70599800;2022-12-20T05:52:50;5.10;99.90
5848;DHT22;8756;49.29324300;8.70599800;2022-12-20T05:55:16;5.10;99.90
5848;DHT22;8756;49.29324300;8.70599800;2022-12-20T05:57:42;5.20;99.90
5848;DHT22;8756;49.29324300;8.70599800;2022-12-20T06:00:10;5.30;99.90
5848;DHT22;8756;49.29324300;8.70599800;2022-12-20T06:02:37;5.30;99.90
5848;DHT22;8756;49.29324300;8.70599800;2022-12-20T06:05:03;5.20;99.90
5848;DHT22;8756;49.29324300;8.70599800;2022-12-20T06:07:30;5.20;99.90
5848;DHT22;8756;49.29324300;8.70599800;2022-12-20T06:09:56;5.20;99.90
5848;DHT22;8756;49.29324300;8.70599800;2022-12-20T06:12:23;5.10;99.90
5848;DHT22;8756;49.29324300;8.70599800;2022-12-20T06:14:51;5.10;99.90
5848;DHT22;8756;49.29324300;8.70599800;2022-12-20T06:17:17;5.10;99.90
5848;DHT22;8756;49.29324300;8.70599800;2022-12-20T06:19:44;5.10;99.90
5848;DHT22;8756;49.29324300;8.70599800;2022-12-20T06:22:10;5.10;99.90
5848;DHT22;8756;49.29324300;8.70599800;2022-12-20T06:24:36;5.10;99.90
5848;DHT22;8756;49.29324300;8.70599800;2022-12-20T06:27:03;5.00;99.90
5848;DHT22;8756;49.29324300;8.70599800;2022-12-20T06:29:31;5.10;99.90
5848;DHT22;8756;49.29324300;8.70599800;2022-12-20T06:31:57;5.10;99.90
5848;DHT22;8756;49.29324300;8.70599800;2022-12-20T06:34:23;5.10;99.90
5848;DHT22;8756;49.29324300;8.70599800;2022-12-20T06:36:49;5.10;99.90
5848;DHT22;8756;49.29324300;8.70599800;2022-12-20T06:39:14;5.10;99.90
5848;DHT22;8756;49.29324300;8.70599800;2022-12-20T06:41:40;5.10;99.90
5848;DHT22;8756;49.29324300;8.70599800;2022-12-20T06:44:06;5.10;99.90
5848;DHT22;8756;49.29324300;8.70599800;2022-12-20T06:46:33;5.10;99.90
5848;DHT22;8756;49.29324300;8.70599800;2022-12-20T06:48:58;5.10;99.90
5848;DHT22;8756;49.29324300;8.70599800;2022-12-20T06:51:24;5.00;99.90
5848;DHT22;8756;49.29324300;8.70599800;2022-12-20T06:53:50;4.90;99.90
5848;DHT22;8756;49.29324300;8.70599800;2022-12-20T06:56:16;4.80;99.90
5848;DHT22;8756;49.29324300;8.70599800;2022-12-20T06:58:42;4.80;99.90
5848;DHT22;8756;49.29324300;8.70599800;2022-12-20T07:01:07;4.80;99.90
5848;DHT22;8756;49.29324300;8.70599800;2022-12-20T07:03:33;4.80;99.90
5848;DHT22;8756;49.29324300;8.70599800;2022-12-20T07:05:59;4.80;99.90
5848;DHT22;8756;49.29324300;8.70599800;2022-12-20T07:08:25;4.70;99.90
5848;DHT22;8756;49.29324300;8.70599800;2022-12-20T07:10:51;4.70;99.90
5848;DHT22;8756;49.29324300;8.70599800;2022-12-20T07:13:21;4.70;99.90
5848;DHT22;8756;49.29324300;8.70599800;2022-12-20T07:15:47;4.70;99.90
5848;DHT22;8756;49.29324300;8.70599800;2022-12-20T07:18:13;4.70;99.90
5848;DHT22;8756;49.29324300;8.70599800;2022-12-20T07:20:39;4.70;99.90
5848;DHT22;8756;49.29324300;8.70599800;2022-12-20T07:23:05;4.70;99.90
5848;DHT22;8756;49.29324300;8.70599800;2022-12-20T07:25:31;4.70;99.90
5848;DHT22;8756;49.29324300;8.70599800;2022-12-20T07:27:56;4.70;99.90
5848;DHT22;8756;49.29324300;8.70599800;2022-12-20T07:30:22;4.70;99.90
5848;DHT22;8756;49.29324300;8.70599800;2022-12-20T07:32:48;4.70;99.90
5848;DHT22;8756;49.29324300;8.70599800;2022-12-20T07:35:14;4.70;99.90
5848;DHT22;8756;49.29324300;8.70599800;2022-12-20T07:37:40;4.70;99.90
5848;DHT22;8756;49.29324300;8.70599800;2022-12-20T07:40:07;4.80;99.90
5848;DHT22;8756;49.29324300;8.70599800;2022-12-20T07:42:33;4.70;99.90
5848;DHT22;8756;49.29324300;8.70599800;2022-12-20T07:44:59;4.70;99.90
5848;DHT22;8756;49.29324300;8.70599800;2022-12-20T07:47:25;4.70;99.90
5848;DHT22;8756;49.29324300;8.70599800;2022-12-20T07:49:51;4.70;99.90
5848;DHT22;8756;49.29324300;8.70599800;2022-12-20T07:52:19;4.70;99.90
5848;DHT22;8756;49.29324300;8.70599800;2022-12-20T07:54:49;4.70;99.90
5848;DHT22;8756;49.29324300;8.70599800;2022-12-20T07:57:22;4.70;99.90
5848;DHT22;8756;49.29324300;8.70599800;2022-12-20T07:59:53;4.70;99.90
5848;DHT22;8756;49.29324300;8.70599800;2022-12-20T08:02:30;4.70;99.90
5848;DHT22;8756;49.29324300;8.70599800;2022-12-20T08:04:59;4.70;99.90
5848;DHT22;8756;49.29324300;8.70599800;2022-12-20T08:07:27;4.70;99.90
5848;DHT22;8756;49.29324300;8.70599800;2022-12-20T08:09:54;4.70;99.90
5848;DHT22;8756;49.29324300;8.70599800;2022-12-20T08:12:20;4.70;99.90
5848;DHT22;8756;49.29324300;8.70599800;2022-12-20T08:14:47;4.60;99.90
5848;DHT22;8756;49.29324300;8.70599800;2022-12-20T08:17:13;4.70;99.90
5848;DHT22;8756;49.29324300;8.70599800;2022-12-20T08:19:38;4.70;99.90
5848;DHT22;8756;49.29324300;8.70599800;2022-12-20T08:22:04;4.70;99.90
5848;DHT22;8756;49.29324300;8.70599800;2022-12-20T08:24:32;4.70;99.90
5848;DHT22;8756;49.29324300;8.70599800;2022-12-20T08:26:59;4.70;99.90
5848;DHT22;8756;49.29324300;8.70599800;2022-12-20T08:29:24;4.60;99.90
5848;DHT22;8756;49.29324300;8.70599800;2022-12-20T08:31:50;4.60;99.90
5848;DHT22;8756;49.29324300;8.70599800;2022-12-20T08:34:18;4.60;99.90
5848;DHT22;8756;49.29324300;8.70599800;2022-12-20T08:36:43;4.60;99.90
5848;DHT22;8756;49.29324300;8.70599800;2022-12-20T08:39:10;4.70;99.90
5848;DHT22;8756;49.29324300;8.70599800;2022-12-20T08:41:37;4.70;99.90
5848;DHT22;8756;49.29324300;8.70599800;2022-12-20T08:44:04;4.80;99.90
5848;DHT22;8756;49.29324300;8.70599800;2022-12-20T08:46:30;4.90;99.90
5848;DHT22;8756;49.29324300;8.70599800;2022-12-20T08:48:55;4.90;99.90
5848;DHT22;8756;49.29324300;8.70599800;2022-12-20T08:51:21;5.00;99.90
5848;DHT22;8756;49.29324300;8.70599800;2022-12-20T08:53:47;5.00;99.90
5848;DHT22;8756;49.29324300;8.70599800;2022-12-20T08:56:15;5.00;99.90
5848;DHT22;8756;49.29324300;8.70599800;2022-12-20T08:58:42;5.10;99.90
5848;DHT22;8756;49.29324300;8.70599800;2022-12-20T09:01:15;5.10;99.90
5848;DHT22;8756;49.29324300;8.70599800;2022-12-20T09:03:42;5.10;99.90
5848;DHT22;8756;49.29324300;8.70599800;2022-12-20T09:06:11;5.20;99.90
5848;DHT22;8756;49.29324300;8.70599800;2022-12-20T09:08:39;5.20;99.90
5848;DHT22;8756;49.29324300;8.70599800;2022-12-20T09:11:08;5.30;99.90
5848;DHT22;8756;49.29324300;8.70599800;2022-12-20T09:13:37;5.30;99.90
5848;DHT22;8756;49.29324300;8.70599800;2022-12-20T09:16:05;5.30;99.90
5848;DHT22;8756;49.29324300;8.70599800;2022-12-20T09:18:32;5.40;99.90
5848;DHT22;8756;49.29324300;8.70599800;2022-12-20T09:21:02;5.40;99.90
5848;DHT22;8756;49.29324300;8.70599800;2022-12-20T09:23:30;5.50;99.90
5848;DHT22;8756;49.29324300;8.70599800;2022-12-20T09:26:04;5.50;99.90
5848;DHT22;8756;49.29324300;8.70599800;2022-12-20T09:28:31;5.50;99.90
5848;DHT22;8756;49.29324300;8.70599800;2022-12-20T09:30:59;5.60;99.90
5848;DHT22;8756;49.29324300;8.70599800;2022-12-20T09:33:26;5.60;99.90
5848;DHT22;8756;49.29324300;8.70599800;2022-12-20T09:35:53;5.60;99.90
5848;DHT22;8756;49.29324300;8.70599800;2022-12-20T09:38:18;5.70;99.90
5848;DHT22;8756;49.29324300;8.70599800;2022-12-20T09:40:46;5.70;99.90
5848;DHT22;8756;49.29324300;8.70599800;2022-12-20T09:43:15;5.80;99.90
5848;DHT22;8756;49.29324300;8.70599800;2022-12-20T09:45:49;5.80;99.90
5848;DHT22;8756;49.29324300;8.70599800;2022-12-20T09:48:20;5.80;99.90
5848;DHT22;8756;49.29324300;8.70599800;2022-12-20T09:51:13;5.80;99.90
5848;DHT22;8756;49.29324300;8.70599800;2022-12-20T09:54:17;5.80;99.90
5848;DHT22;8756;49.29324300;8.70599800;2022-12-20T09:59:29;5.90;99.90
5848;DHT22;8756;49.29324300;8.70599800;2022-12-20T10:01:58;5.90;99.90
5848;DHT22;8756;49.29324300;8.70599800;2022-12-20T10:04:29;5.90;99.90
5848;DHT22;8756;49.29324300;8.70599800;2022-12-20T10:10:29;5.90;99.90
5848;DHT22;8756;49.29324300;8.70599800;2022-12-20T10:16:04;6.00;99.90
5848;DHT22;8756;49.29324300;8.70599800;2022-12-20T10:24:20;6.00;99.90
5848;DHT22;8756;49.29324300;8.70599800;2022-12-20T10:26:57;6.10;99.90
5848;DHT22;8756;49.29324300;8.70599800;2022-12-20T10:29:31;6.10;99.90
5848;DHT22;8756;49.29324300;8.70599800;2022-12-20T10:31:59;6.20;99.90
5848;DHT22;8756;49.29324300;8.70599800;2022-12-20T10:34:25;6.20;99.90
5848;DHT22;8756;49.29324300;8.70599800;2022-12-20T10:37:14;6.30;99.90
5848;DHT22;8756;49.29324300;8.70599800;2022-12-20T10:39:46;6.30;99.90
5848;DHT22;8756;49.29324300;8.70599800;2022-12-20T10:42:36;6.30;99.90
5848;DHT22;8756;49.29324300;8.70599800;2022-12-20T10:45:20;6.30;99.90
5848;DHT22;8756;49.29324300;8.70599800;2022-12-20T10:47:58;6.40;99.90
5848;DHT22;8756;49.29324300;8.70599800;2022-12-20T10:50:25;6.40;99.90
5848;DHT22;8756;49.29324300;8.70599800;2022-12-20T10:53:15;6.40;99.90
5848;DHT22;8756;49.29324300;8.70599800;2022-12-20T10:55:45;6.50;99.90
5848;DHT22;8756;49.29324300;8.70599800;2022-12-20T10:58:15;6.50;99.90
5848;DHT22;8756;49.29324300;8.70599800;2022-12-20T11:04:04;6.50;99.90
5848;DHT22;8756;49.29324300;8.70599800;2022-12-20T11:09:31;6.50;99.90
5848;DHT22;8756;49.29324300;8.70599800;2022-12-20T11:12:02;6.60;99.90
5848;DHT22;8756;49.29324300;8.70599800;2022-12-20T11:14:29;6.60;99.90
5848;DHT22;8756;49.29324300;8.70599800;2022-12-20T11:16:57;6.60;99.90
5848;DHT22;8756;49.29324300;8.70599800;2022-12-20T11:19:52;6.60;99.90
5848;DHT22;8756;49.29324300;8.70599800;2022-12-20T11:25:24;6.70;99.90
5848;DHT22;8756;49.29324300;8.70599800;2022-12-20T11:43:25;6.70;99.90
5848;DHT22;8756;49.29324300;8.70599800;2022-12-20T11:46:14;6.70;99.90
5848;DHT22;8756;49.29324300;8.70599800;2022-12-20T11:52:07;6.70;99.90
5848;DHT22;8756;49.29324300;8.70599800;2022-12-20T11:54:46;6.70;99.90
5848;DHT22;8756;49.29324300;8.70599800;2022-12-20T11:57:31;6.80;99.90
5848;DHT22;8756;49.29324300;8.70599800;2022-12-20T12:00:04;6.80;99.90
5848;DHT22;8756;49.29324300;8.70599800;2022-12-20T12:02:37;6.80;99.90
5848;DHT22;8756;49.29324300;8.70599800;2022-12-20T12:05:51;6.80;99.90
5848;DHT22;8756;49.29324300;8.70599800;2022-12-20T12:11:25;6.80;99.90
5848;DHT22;8756;49.29324300;8.70599800;2022-12-20T12:13:56;6.80;99.90
5848;DHT22;8756;49.29324300;8.70599800;2022-12-20T12:16:36;6.90;99.90
5848;DHT22;8756;49.29324300;8.70599800;2022-12-20T12:19:08;6.90;99.90
5848;DHT22;8756;49.29324300;8.70599800;2022-12-20T12:21:58;7.00;99.90
5848;DHT22;8756;49.29324300;8.70599800;2022-12-20T12:24:34;7.00;99.90
5848;DHT22;8756;49.29324300;8.70599800;2022-12-20T12:27:04;7.10;99.90
5848;DHT22;8756;49.29324300;8.70599800;2022-12-20T12:29:32;7.10;99.90
5848;DHT22;8756;49.29324300;8.70599800;2022-12-20T12:32:48;7.10;99.90
5848;DHT22;8756;49.29324300;8.70599800;2022-12-20T12:43:50;7.10;99.90
5848;DHT22;8756;49.29324300;8.70599800;2022-12-20T12:46:23;7.10;99.90
5848;DHT22;8756;49.29324300;8.70599800;2022-12-20T12:49:07;7.20;99.90
5848;DHT22;8756;49.29324300;8.70599800;2022-12-20T12:51:38;7.20;99.90
5848;DHT22;8756;49.29324300;8.70599800;2022-12-20T12:54:16;7.20;99.90
5848;DHT22;8756;49.29324300;8.70599800;2022-12-20T12:56:47;7.30;99.90
5848;DHT22;8756;49.29324300;8.70599800;2022-12-20T13:04:58;7.30;99.90
5848;DHT22;8756;49.29324300;8.70599800;2022-12-20T13:12:56;7.30;99.90
5848;DHT22;8756;49.29324300;8.70599800;2022-12-20T13:25:34;7.40;99.90
5848;DHT22;8756;49.29324300;8.70599800;2022-12-20T13:33:48;7.50;99.90
5848;DHT22;8756;49.29324300;8.70599800;2022-12-20T13:49:27;7.50;99.90
5848;DHT22;8756;49.29324300;8.70599800;2022-12-20T13:54:40;7.40;99.90
5848;DHT22;8756;49.29324300;8.70599800;2022-12-20T13:57:07;7.40;99.90
5848;DHT22;8756;49.29324300;8.70599800;2022-12-20T13:59:35;7.40;99.90
5848;DHT22;8756;49.29324300;8.70599800;2022-12-20T14:02:03;7.40;99.90
5848;DHT22;8756;49.29324300;8.70599800;2022-12-20T14:04:41;7.40;99.90
5848;DHT22;8756;49.29324300;8.70599800;2022-12-20T14:07:13;7.40;99.90
5848;DHT22;8756;49.29324300;8.70599800;2022-12-20T14:09:44;7.50;99.90
5848;DHT22;8756;49.29324300;8.70599800;2022-12-20T14:12:13;7.50;99.90
5848;DHT22;8756;49.29324300;8.70599800;2022-12-20T14:14:46;7.50;99.90
5848;DHT22;8756;49.29324300;8.70599800;2022-12-20T14:17:25;7.40;99.90
5848;DHT22;8756;49.29324300;8.70599800;2022-12-20T14:25:54;7.50;99.90
5848;DHT22;8756;49.29324300;8.70599800;2022-12-20T14:30:55;7.50;99.90
5848;DHT22;8756;49.29324300;8.70599800;2022-12-20T14:35:54;7.40;99.90
5848;DHT22;8756;49.29324300;8.70599800;2022-12-20T14:38:22;7.40;99.90
5848;DHT22;8756;49.29324300;8.70599800;2022-12-20T14:40:50;7.40;99.90
5848;DHT22;8756;49.29324300;8.70599800;2022-12-20T14:43:28;7.40;99.90
5848;DHT22;8756;49.29324300;8.70599800;2022-12-20T14:46:28;7.40;99.90
5848;DHT22;8756;49.29324300;8.70599800;2022-12-20T14:49:34;7.50;99.90
5848;DHT22;8756;49.29324300;8.70599800;2022-12-20T14:52:06;7.50;99.90
5848;DHT22;8756;49.29324300;8.70599800;2022-12-20T15:00:09;7.40;99.90
5848;DHT22;8756;49.29324300;8.70599800;2022-12-20T15:08:16;7.40;99.90
5848;DHT22;8756;49.29324300;8.70599800;2022-12-20T15:13:33;7.50;99.90
5848;DHT22;8756;49.29324300;8.70599800;2022-12-20T15:16:03;7.50;99.90
5848;DHT22;8756;49.29324300;8.70599800;2022-12-20T15:18:38;7.40;99.90
5848;DHT22;8756;49.29324300;8.70599800;2022-12-20T15:21:13;7.40;99.90
5848;DHT22;8756;49.29324300;8.70599800;2022-12-20T15:23:51;7.40;99.90
5848;DHT22;8756;49.29324300;8.70599800;2022-12-20T15:26:22;7.40;99.90
5848;DHT22;8756;49.29324300;8.70599800;2022-12-20T15:28:51;7.30;99.90
5848;DHT22;8756;49.29324300;8.70599800;2022-12-20T15:31:19;7.30;99.90
5848;DHT22;8756;49.29324300;8.70599800;2022-12-20T15:33:46;7.40;99.90
5848;DHT22;8756;49.29324300;8.70599800;2022-12-20T15:36:19;7.40;99.90
5848;DHT22;8756;49.29324300;8.70599800;2022-12-20T15:38:46;7.50;99.90
5848;DHT22;8756;49.29324300;8.70599800;2022-12-20T15:41:18;7.50;99.90
5848;DHT22;8756;49.29324300;8.70599800;2022-12-20T15:43:59;7.50;99.90
5848;DHT22;8756;49.29324300;8.70599800;2022-12-20T15:46:28;7.60;99.90
5848;DHT22;8756;49.29324300;8.70599800;2022-12-20T15:48:54;7.70;99.90
5848;DHT22;8756;49.29324300;8.70599800;2022-12-20T15:51:27;7.70;99.90
5848;DHT22;8756;49.29324300;8.70599800;2022-12-20T15:53:56;7.70;99.90
5848;DHT22;8756;49.29324300;8.70599800;2022-12-20T15:56:24;7.70;99.90
5848;DHT22;8756;49.29324300;8.70599800;2022-12-20T15:58:50;7.60;99.90
5848;DHT22;8756;49.29324300;8.70599800;2022-12-20T16:01:26;7.60;99.90
5848;DHT22;8756;49.29324300;8.70599800;2022-12-20T16:03:54;7.60;99.90
5848;DHT22;8756;49.29324300;8.70599800;2022-12-20T16:06:20;7.60;99.90
5848;DHT22;8756;49.29324300;8.70599800;2022-12-20T16:08:47;7.50;99.90
5848;DHT22;8756;49.29324300;8.70599800;2022-12-20T16:11:25;7.60;99.90
5848;DHT22;8756;49.29324300;8.70599800;2022-12-20T16:13:53;7.60;99.90